Milwaukee, Wisconsin
Traffic Map
Current Weather Conditions
Milwaukee, Wisconsin
Overcast
Overcast
38°
Feels Like: 29°
Wind Chill: 29° Ceiling: 600
Heat Index: 38° Visibility: 10mi
Dew Point: 34° Wind: 16mph
Humidity: 86% Direction: 360° (N)
Pressure: 30.1in Gusts: 0mph
Raw Report DataKMKE 250252Z 36014KT 10SM OVC006 03/01 A3010 RMK AO2 SLP198 T00330011 53019
Traffic Incident Summary
Active as of:
Severity:
Category:
InformationThere was an issue retrieving the traffic information for this location. Please try a different location or try again shortly.
Advertisements
Track Severe Weather on mobile